sensor_id;sensor_type;location;lat;lon;timestamp;temperature;humidity
39751;DHT22;37579;51.074;17.004;2023-04-25T00:01:32;24.70;53.80
39751;DHT22;37579;51.074;17.004;2023-04-25T00:04:00;24.70;53.80
39751;DHT22;37579;51.074;17.004;2023-04-25T00:06:26;24.70;54.20
39751;DHT22;37579;51.074;17.004;2023-04-25T00:08:52;24.70;53.80
39751;DHT22;37579;51.074;17.004;2023-04-25T00:11:19;24.70;53.80
39751;DHT22;37579;51.074;17.004;2023-04-25T00:13:44;24.70;53.80
39751;DHT22;37579;51.074;17.004;2023-04-25T00:16:12;24.70;53.90
39751;DHT22;37579;51.074;17.004;2023-04-25T00:18:42;24.70;54.40
39751;DHT22;37579;51.074;17.004;2023-04-25T00:21:08;24.70;53.80
39751;DHT22;37579;51.074;17.004;2023-04-25T00:23:35;24.70;53.80
39751;DHT22;37579;51.074;17.004;2023-04-25T00:26:02;24.70;53.90
39751;DHT22;37579;51.074;17.004;2023-04-25T00:28:28;24.70;53.80
39751;DHT22;37579;51.074;17.004;2023-04-25T00:30:54;24.70;53.80
39751;DHT22;37579;51.074;17.004;2023-04-25T00:33:20;24.70;53.80
39751;DHT22;37579;51.074;17.004;2023-04-25T00:35:45;24.70;53.80
39751;DHT22;37579;51.074;17.004;2023-04-25T00:38:11;24.70;53.80
39751;DHT22;37579;51.074;17.004;2023-04-25T00:40:37;24.60;53.70
39751;DHT22;37579;51.074;17.004;2023-04-25T00:43:04;24.60;53.70
39751;DHT22;37579;51.074;17.004;2023-04-25T00:45:30;24.60;53.70
39751;DHT22;37579;51.074;17.004;2023-04-25T00:47:57;24.60;53.70
39751;DHT22;37579;51.074;17.004;2023-04-25T00:50:23;24.60;53.80
39751;DHT22;37579;51.074;17.004;2023-04-25T00:52:50;24.60;53.70
39751;DHT22;37579;51.074;17.004;2023-04-25T00:55:16;24.60;53.70
39751;DHT22;37579;51.074;17.004;2023-04-25T00:57:42;24.60;53.70
39751;DHT22;37579;51.074;17.004;2023-04-25T01:00:27;24.60;53.70
39751;DHT22;37579;51.074;17.004;2023-04-25T01:02:53;24.60;53.80
39751;DHT22;37579;51.074;17.004;2023-04-25T01:05:19;24.60;53.80
39751;DHT22;37579;51.074;17.004;2023-04-25T01:07:45;24.60;53.80
39751;DHT22;37579;51.074;17.004;2023-04-25T01:10:11;24.60;53.70
39751;DHT22;37579;51.074;17.004;2023-04-25T01:12:37;24.60;53.80
39751;DHT22;37579;51.074;17.004;2023-04-25T01:15:03;24.60;53.70
39751;DHT22;37579;51.074;17.004;2023-04-25T01:17:29;24.60;53.70
39751;DHT22;37579;51.074;17.004;2023-04-25T01:19:55;24.60;53.70
39751;DHT22;37579;51.074;17.004;2023-04-25T01:22:21;24.60;53.70
39751;DHT22;37579;51.074;17.004;2023-04-25T01:24:47;24.60;53.70
39751;DHT22;37579;51.074;17.004;2023-04-25T01:27:13;24.50;53.60
39751;DHT22;37579;51.074;17.004;2023-04-25T01:29:39;24.50;53.60
39751;DHT22;37579;51.074;17.004;2023-04-25T01:32:05;24.50;53.60
39751;DHT22;37579;51.074;17.004;2023-04-25T01:34:32;24.60;53.70
39751;DHT22;37579;51.074;17.004;2023-04-25T01:36:59;24.50;53.60
39751;DHT22;37579;51.074;17.004;2023-04-25T01:39:27;24.50;53.60
39751;DHT22;37579;51.074;17.004;2023-04-25T01:41:53;24.50;53.50
39751;DHT22;37579;51.074;17.004;2023-04-25T01:44:20;24.50;53.60
39751;DHT22;37579;51.074;17.004;2023-04-25T01:46:46;24.50;53.60
39751;DHT22;37579;51.074;17.004;2023-04-25T01:49:12;24.50;53.70
39751;DHT22;37579;51.074;17.004;2023-04-25T01:51:38;24.50;54.30
39751;DHT22;37579;51.074;17.004;2023-04-25T01:54:04;24.50;53.60
39751;DHT22;37579;51.074;17.004;2023-04-25T01:56:32;24.50;53.60
39751;DHT22;37579;51.074;17.004;2023-04-25T01:58:59;24.50;53.60
39751;DHT22;37579;51.074;17.004;2023-04-25T02:01:45;24.50;53.60
39751;DHT22;37579;51.074;17.004;2023-04-25T02:04:19;24.40;53.60
39751;DHT22;37579;51.074;17.004;2023-04-25T02:06:45;24.40;53.60
39751;DHT22;37579;51.074;17.004;2023-04-25T02:09:11;24.50;53.70
39751;DHT22;37579;51.074;17.004;2023-04-25T02:11:43;24.40;53.60
39751;DHT22;37579;51.074;17.004;2023-04-25T02:14:27;24.40;53.60
39751;DHT22;37579;51.074;17.004;2023-04-25T02:17:08;24.40;53.60
39751;DHT22;37579;51.074;17.004;2023-04-25T02:19:34;24.40;53.60
39751;DHT22;37579;51.074;17.004;2023-04-25T02:22:00;24.40;54.30
39751;DHT22;37579;51.074;17.004;2023-04-25T02:24:26;24.40;53.60
39751;DHT22;37579;51.074;17.004;2023-04-25T02:26:55;24.40;53.60
39751;DHT22;37579;51.074;17.004;2023-04-25T02:29:23;24.40;53.60
39751;DHT22;37579;51.074;17.004;2023-04-25T02:31:49;24.40;53.60
39751;DHT22;37579;51.074;17.004;2023-04-25T02:34:16;24.40;53.60
39751;DHT22;37579;51.074;17.004;2023-04-25T02:36:42;24.40;53.90
39751;DHT22;37579;51.074;17.004;2023-04-25T02:39:08;24.40;53.60
39751;DHT22;37579;51.074;17.004;2023-04-25T02:41:34;24.40;53.50
39751;DHT22;37579;51.074;17.004;2023-04-25T02:43:59;24.40;53.60
39751;DHT22;37579;51.074;17.004;2023-04-25T02:46:25;24.40;53.50
39751;DHT22;37579;51.074;17.004;2023-04-25T02:48:51;24.40;53.50
39751;DHT22;37579;51.074;17.004;2023-04-25T02:51:17;24.40;53.50
39751;DHT22;37579;51.074;17.004;2023-04-25T02:53:43;24.40;54.20
39751;DHT22;37579;51.074;17.004;2023-04-25T02:56:09;24.40;54.20
39751;DHT22;37579;51.074;17.004;2023-04-25T02:58:35;24.40;53.50
39751;DHT22;37579;51.074;17.004;2023-04-25T03:01:00;24.40;53.50
39751;DHT22;37579;51.074;17.004;2023-04-25T03:03:26;24.40;53.50
39751;DHT22;37579;51.074;17.004;2023-04-25T03:05:52;24.40;53.50
39751;DHT22;37579;51.074;17.004;2023-04-25T03:08:23;24.30;53.50
39751;DHT22;37579;51.074;17.004;2023-04-25T03:10:50;24.30;53.50
39751;DHT22;37579;51.074;17.004;2023-04-25T03:13:18;24.40;53.60
39751;DHT22;37579;51.074;17.004;2023-04-25T03:15:43;24.30;53.40
39751;DHT22;37579;51.074;17.004;2023-04-25T03:18:09;24.30;53.50
39751;DHT22;37579;51.074;17.004;2023-04-25T03:20:35;24.30;53.50
39751;DHT22;37579;51.074;17.004;2023-04-25T03:23:02;24.30;53.50
39751;DHT22;37579;51.074;17.004;2023-04-25T03:25:29;24.30;53.40
39751;DHT22;37579;51.074;17.004;2023-04-25T03:27:54;24.30;53.40
39751;DHT22;37579;51.074;17.004;2023-04-25T03:30:21;24.30;53.40
39751;DHT22;37579;51.074;17.004;2023-04-25T03:32:47;24.30;53.40
39751;DHT22;37579;51.074;17.004;2023-04-25T03:35:16;24.30;53.40
39751;DHT22;37579;51.074;17.004;2023-04-25T03:37:42;24.30;53.40
39751;DHT22;37579;51.074;17.004;2023-04-25T03:40:12;24.30;53.40
39751;DHT22;37579;51.074;17.004;2023-04-25T03:42:57;24.30;53.40
39751;DHT22;37579;51.074;17.004;2023-04-25T03:45:22;24.30;53.40
39751;DHT22;37579;51.074;17.004;2023-04-25T03:47:48;24.30;53.40
39751;DHT22;37579;51.074;17.004;2023-04-25T03:50:15;24.30;53.40
39751;DHT22;37579;51.074;17.004;2023-04-25T03:52:40;24.30;53.40
39751;DHT22;37579;51.074;17.004;2023-04-25T03:55:07;24.30;53.40
39751;DHT22;37579;51.074;17.004;2023-04-25T03:57:33;24.30;53.40
39751;DHT22;37579;51.074;17.004;2023-04-25T03:59:58;24.30;53.40
39751;DHT22;37579;51.074;17.004;2023-04-25T04:02:26;24.30;53.30
39751;DHT22;37579;51.074;17.004;2023-04-25T04:04:52;24.30;53.30
39751;DHT22;37579;51.074;17.004;2023-04-25T04:07:19;24.30;53.40
39751;DHT22;37579;51.074;17.004;2023-04-25T04:09:47;24.30;53.40
39751;DHT22;37579;51.074;17.004;2023-04-25T04:12:19;24.30;53.30
39751;DHT22;37579;51.074;17.004;2023-04-25T04:14:45;24.30;53.30
39751;DHT22;37579;51.074;17.004;2023-04-25T04:17:11;24.40;53.30
39751;DHT22;37579;51.074;17.004;2023-04-25T04:19:37;24.40;53.20
39751;DHT22;37579;51.074;17.004;2023-04-25T04:22:11;24.40;53.10
39751;DHT22;37579;51.074;17.004;2023-04-25T04:24:38;24.50;53.20
39751;DHT22;37579;51.074;17.004;2023-04-25T04:27:06;24.50;53.20
39751;DHT22;37579;51.074;17.004;2023-04-25T04:29:37;24.50;53.20
39751;DHT22;37579;51.074;17.004;2023-04-25T04:32:29;24.50;53.10
39751;DHT22;37579;51.074;17.004;2023-04-25T04:34:56;24.50;53.10
39751;DHT22;37579;51.074;17.004;2023-04-25T04:37:24;24.50;53.00
39751;DHT22;37579;51.074;17.004;2023-04-25T04:39:50;24.60;53.10
39751;DHT22;37579;51.074;17.004;2023-04-25T04:42:39;24.60;53.10
39751;DHT22;37579;51.074;17.004;2023-04-25T04:45:33;24.60;53.00
39751;DHT22;37579;51.074;17.004;2023-04-25T04:48:10;24.60;53.10
39751;DHT22;37579;51.074;17.004;2023-04-25T04:50:55;24.60;53.20
39751;DHT22;37579;51.074;17.004;2023-04-25T04:53:42;24.60;53.20
39751;DHT22;37579;51.074;17.004;2023-04-25T04:56:26;24.60;53.10
39751;DHT22;37579;51.074;17.004;2023-04-25T04:59:04;24.60;53.00
39751;DHT22;37579;51.074;17.004;2023-04-25T05:01:59;24.70;53.00
39751;DHT22;37579;51.074;17.004;2023-04-25T05:04:44;24.70;53.00
39751;DHT22;37579;51.074;17.004;2023-04-25T05:07:30;24.80;53.20
39751;DHT22;37579;51.074;17.004;2023-04-25T05:10:07;24.80;53.20
39751;DHT22;37579;51.074;17.004;2023-04-25T05:12:53;24.80;53.20
39751;DHT22;37579;51.074;17.004;2023-04-25T05:15:43;24.90;53.30
39751;DHT22;37579;51.074;17.004;2023-04-25T05:18:27;24.90;53.30
39751;DHT22;37579;51.074;17.004;2023-04-25T05:21:04;24.90;53.20
39751;DHT22;37579;51.074;17.004;2023-04-25T05:24:06;24.90;53.20
39751;DHT22;37579;51.074;17.004;2023-04-25T05:26:50;24.90;53.10
39751;DHT22;37579;51.074;17.004;2023-04-25T05:29:19;24.90;53.10
39751;DHT22;37579;51.074;17.004;2023-04-25T05:32:02;24.90;53.00
39751;DHT22;37579;51.074;17.004;2023-04-25T05:34:28;24.80;52.50
39751;DHT22;37579;51.074;17.004;2023-04-25T05:36:57;24.80;52.60
39751;DHT22;37579;51.074;17.004;2023-04-25T05:39:24;24.80;51.20
39751;DHT22;37579;51.074;17.004;2023-04-25T05:42:06;24.80;51.50
39751;DHT22;37579;51.074;17.004;2023-04-25T05:44:50;24.80;51.40
39751;DHT22;37579;51.074;17.004;2023-04-25T05:47:55;24.80;51.60
39751;DHT22;37579;51.074;17.004;2023-04-25T05:50:29;24.90;51.80
39751;DHT22;37579;51.074;17.004;2023-04-25T05:53:19;24.90;52.00
39751;DHT22;37579;51.074;17.004;2023-04-25T05:55:52;25.00;52.00
39751;DHT22;37579;51.074;17.004;2023-04-25T05:58:23;25.00;51.80
39751;DHT22;37579;51.074;17.004;2023-04-25T06:00:49;25.00;51.80
39751;DHT22;37579;51.074;17.004;2023-04-25T06:03:15;25.00;51.80
39751;DHT22;37579;51.074;17.004;2023-04-25T06:05:42;25.00;51.60
39751;DHT22;37579;51.074;17.004;2023-04-25T06:08:08;25.00;51.60
39751;DHT22;37579;51.074;17.004;2023-04-25T06:10:37;25.00;51.70
39751;DHT22;37579;51.074;17.004;2023-04-25T06:13:03;25.00;51.90
39751;DHT22;37579;51.074;17.004;2023-04-25T06:15:31;24.90;52.00
39751;DHT22;37579;51.074;17.004;2023-04-25T06:17:59;24.90;52.40
39751;DHT22;37579;51.074;17.004;2023-04-25T06:20:25;24.90;52.50
39751;DHT22;37579;51.074;17.004;2023-04-25T06:22:52;24.90;52.60
39751;DHT22;37579;51.074;17.004;2023-04-25T06:25:19;24.90;52.50
39751;DHT22;37579;51.074;17.004;2023-04-25T06:27:45;24.90;52.50
39751;DHT22;37579;51.074;17.004;2023-04-25T06:30:12;24.90;52.60
39751;DHT22;37579;51.074;17.004;2023-04-25T06:32:39;25.00;52.40
39751;DHT22;37579;51.074;17.004;2023-04-25T06:35:05;25.00;52.40
39751;DHT22;37579;51.074;17.004;2023-04-25T06:37:32;25.00;52.50
39751;DHT22;37579;51.074;17.004;2023-04-25T06:39:58;25.00;52.40
39751;DHT22;37579;51.074;17.004;2023-04-25T06:42:24;25.00;52.40
39751;DHT22;37579;51.074;17.004;2023-04-25T06:44:57;25.00;52.20
39751;DHT22;37579;51.074;17.004;2023-04-25T06:47:23;25.00;52.00
39751;DHT22;37579;51.074;17.004;2023-04-25T06:49:49;25.00;51.90
39751;DHT22;37579;51.074;17.004;2023-04-25T06:52:15;25.00;52.00
39751;DHT22;37579;51.074;17.004;2023-04-25T06:54:44;25.00;51.70
39751;DHT22;37579;51.074;17.004;2023-04-25T06:57:23;25.00;51.70
39751;DHT22;37579;51.074;17.004;2023-04-25T06:59:49;25.00;51.50
39751;DHT22;37579;51.074;17.004;2023-04-25T07:02:15;25.00;51.30
39751;DHT22;37579;51.074;17.004;2023-04-25T07:04:41;25.00;51.40
39751;DHT22;37579;51.074;17.004;2023-04-25T07:07:08;25.00;51.10
39751;DHT22;37579;51.074;17.004;2023-04-25T07:09:53;25.00;51.20
39751;DHT22;37579;51.074;17.004;2023-04-25T07:12:20;25.10;51.40
39751;DHT22;37579;51.074;17.004;2023-04-25T07:14:46;25.10;51.10
39751;DHT22;37579;51.074;17.004;2023-04-25T07:17:12;25.10;51.00
39751;DHT22;37579;51.074;17.004;2023-04-25T07:19:38;25.10;50.90
39751;DHT22;37579;51.074;17.004;2023-04-25T07:22:06;25.10;50.70
39751;DHT22;37579;51.074;17.004;2023-04-25T07:24:34;25.10;50.70
39751;DHT22;37579;51.074;17.004;2023-04-25T07:27:00;25.00;50.40
39751;DHT22;37579;51.074;17.004;2023-04-25T07:29:34;25.00;50.20
39751;DHT22;37579;51.074;17.004;2023-04-25T07:32:02;25.00;50.50
39751;DHT22;37579;51.074;17.004;2023-04-25T07:34:28;25.00;50.70
39751;DHT22;37579;51.074;17.004;2023-04-25T07:36:55;25.00;50.90
39751;DHT22;37579;51.074;17.004;2023-04-25T07:39:23;25.00;51.00
39751;DHT22;37579;51.074;17.004;2023-04-25T07:41:49;25.00;51.00
39751;DHT22;37579;51.074;17.004;2023-04-25T07:44:21;25.10;51.00
39751;DHT22;37579;51.074;17.004;2023-04-25T07:46:47;25.10;51.10
39751;DHT22;37579;51.074;17.004;2023-04-25T07:49:13;25.00;51.20
39751;DHT22;37579;51.074;17.004;2023-04-25T07:51:40;25.00;51.00
39751;DHT22;37579;51.074;17.004;2023-04-25T07:54:13;25.00;51.30
39751;DHT22;37579;51.074;17.004;2023-04-25T07:56:44;25.00;51.40
39751;DHT22;37579;51.074;17.004;2023-04-25T07:59:10;25.00;51.50
39751;DHT22;37579;51.074;17.004;2023-04-25T08:01:36;25.10;51.40
39751;DHT22;37579;51.074;17.004;2023-04-25T08:04:05;25.00;51.30
39751;DHT22;37579;51.074;17.004;2023-04-25T08:06:43;25.00;51.40
39751;DHT22;37579;51.074;17.004;2023-04-25T08:09:17;25.00;51.10
39751;DHT22;37579;51.074;17.004;2023-04-25T08:11:43;25.00;50.80
39751;DHT22;37579;51.074;17.004;2023-04-25T08:14:12;25.00;51.00
39751;DHT22;37579;51.074;17.004;2023-04-25T08:16:39;25.00;51.10
39751;DHT22;37579;51.074;17.004;2023-04-25T08:19:05;25.00;51.00
39751;DHT22;37579;51.074;17.004;2023-04-25T08:21:32;24.90;50.80
39751;DHT22;37579;51.074;17.004;2023-04-25T08:24:01;24.90;50.80
39751;DHT22;37579;51.074;17.004;2023-04-25T08:26:31;24.80;50.80
39751;DHT22;37579;51.074;17.004;2023-04-25T08:28:58;24.90;50.90
39751;DHT22;37579;51.074;17.004;2023-04-25T08:31:23;24.90;50.40
39751;DHT22;37579;51.074;17.004;2023-04-25T08:33:58;24.80;49.90
39751;DHT22;37579;51.074;17.004;2023-04-25T08:36:32;24.80;49.90
39751;DHT22;37579;51.074;17.004;2023-04-25T08:38:59;24.80;49.90
39751;DHT22;37579;51.074;17.004;2023-04-25T08:41:25;24.80;49.90
39751;DHT22;37579;51.074;17.004;2023-04-25T08:43:53;24.80;49.80
39751;DHT22;37579;51.074;17.004;2023-04-25T08:46:23;24.80;49.90
39751;DHT22;37579;51.074;17.004;2023-04-25T08:49:08;24.80;50.00
39751;DHT22;37579;51.074;17.004;2023-04-25T08:51:36;24.80;50.00
39751;DHT22;37579;51.074;17.004;2023-04-25T08:54:11;24.80;50.00
39751;DHT22;37579;51.074;17.004;2023-04-25T08:56:44;24.80;50.00
39751;DHT22;37579;51.074;17.004;2023-04-25T08:59:11;24.90;50.00
39751;DHT22;37579;51.074;17.004;2023-04-25T09:01:38;24.90;50.10
39751;DHT22;37579;51.074;17.004;2023-04-25T09:04:03;24.90;50.10
39751;DHT22;37579;51.074;17.004;2023-04-25T09:06:29;24.80;50.10
39751;DHT22;37579;51.074;17.004;2023-04-25T09:09:06;24.90;50.20
39751;DHT22;37579;51.074;17.004;2023-04-25T09:11:35;24.90;50.20
39751;DHT22;37579;51.074;17.004;2023-04-25T09:17:18;24.90;50.40
39751;DHT22;37579;51.074;17.004;2023-04-25T09:19:47;24.90;50.40
39751;DHT22;37579;51.074;17.004;2023-04-25T09:22:21;24.80;50.50
39751;DHT22;37579;51.074;17.004;2023-04-25T09:24:48;24.80;50.50
39751;DHT22;37579;51.074;17.004;2023-04-25T09:27:20;24.90;50.50
39751;DHT22;37579;51.074;17.004;2023-04-25T09:30:02;24.90;50.60
39751;DHT22;37579;51.074;17.004;2023-04-25T09:32:44;24.80;50.60
39751;DHT22;37579;51.074;17.004;2023-04-25T09:35:11;24.80;50.80
39751;DHT22;37579;51.074;17.004;2023-04-25T09:37:50;24.80;50.80
39751;DHT22;37579;51.074;17.004;2023-04-25T09:40:47;24.80;50.90
39751;DHT22;37579;51.074;17.004;2023-04-25T09:43:45;24.80;51.40
39751;DHT22;37579;51.074;17.004;2023-04-25T09:46:12;24.80;51.00
39751;DHT22;37579;51.074;17.004;2023-04-25T09:48:52;24.80;51.00
39751;DHT22;37579;51.074;17.004;2023-04-25T09:51:26;24.80;50.10
39751;DHT22;37579;51.074;17.004;2023-04-25T09:53:54;24.80;50.20
39751;DHT22;37579;51.074;17.004;2023-04-25T09:56:31;24.80;50.30
39751;DHT22;37579;51.074;17.004;2023-04-25T09:59:04;24.70;50.30
39751;DHT22;37579;51.074;17.004;2023-04-25T10:01:33;24.60;46.00
39751;DHT22;37579;51.074;17.004;2023-04-25T10:04:10;24.60;45.40
39751;DHT22;37579;51.074;17.004;2023-04-25T10:06:48;24.50;42.20
39751;DHT22;37579;51.074;17.004;2023-04-25T10:09:16;24.10;40.00
39751;DHT22;37579;51.074;17.004;2023-04-25T10:11:46;23.80;39.70
39751;DHT22;37579;51.074;17.004;2023-04-25T10:14:14;23.60;39.70
39751;DHT22;37579;51.074;17.004;2023-04-25T10:16:41;23.50;40.10
39751;DHT22;37579;51.074;17.004;2023-04-25T10:19:09;23.60;40.70
39751;DHT22;37579;51.074;17.004;2023-04-25T10:21:37;23.90;42.80
39751;DHT22;37579;51.074;17.004;2023-04-25T10:24:06;24.00;43.40
39751;DHT22;37579;51.074;17.004;2023-04-25T10:26:32;24.20;43.30
39751;DHT22;37579;51.074;17.004;2023-04-25T10:29:02;24.20;43.70
39751;DHT22;37579;51.074;17.004;2023-04-25T10:31:30;24.20;43.40
39751;DHT22;37579;51.074;17.004;2023-04-25T10:33:56;24.30;43.30
39751;DHT22;37579;51.074;17.004;2023-04-25T10:36:23;24.30;43.50
39751;DHT22;37579;51.074;17.004;2023-04-25T10:38:50;24.30;43.20
39751;DHT22;37579;51.074;17.004;2023-04-25T10:41:18;24.40;43.30
39751;DHT22;37579;51.074;17.004;2023-04-25T10:43:45;24.40;43.60
39751;DHT22;37579;51.074;17.004;2023-04-25T10:46:26;24.40;43.60
39751;DHT22;37579;51.074;17.004;2023-04-25T10:48:55;24.40;44.00
39751;DHT22;37579;51.074;17.004;2023-04-25T10:51:29;24.40;43.70
39751;DHT22;37579;51.074;17.004;2023-04-25T10:54:01;24.40;43.50
39751;DHT22;37579;51.074;17.004;2023-04-25T10:56:30;24.40;43.80
39751;DHT22;37579;51.074;17.004;2023-04-25T10:59:14;24.40;43.90
39751;DHT22;37579;51.074;17.004;2023-04-25T11:01:41;24.40;42.50
39751;DHT22;37579;51.074;17.004;2023-04-25T11:07:10;24.40;41.70
39751;DHT22;37579;51.074;17.004;2023-04-25T11:09:40;24.30;41.60
39751;DHT22;37579;51.074;17.004;2023-04-25T11:12:08;24.30;40.70
39751;DHT22;37579;51.074;17.004;2023-04-25T11:14:35;24.20;39.50
39751;DHT22;37579;51.074;17.004;2023-04-25T11:17:01;24.10;38.10
39751;DHT22;37579;51.074;17.004;2023-04-25T11:19:29;24.00;38.10
39751;DHT22;37579;51.074;17.004;2023-04-25T11:21:56;24.10;37.80
39751;DHT22;37579;51.074;17.004;2023-04-25T11:24:35;24.10;38.50
39751;DHT22;37579;51.074;17.004;2023-04-25T11:27:03;24.10;39.40
39751;DHT22;37579;51.074;17.004;2023-04-25T11:29:30;24.00;37.80
39751;DHT22;37579;51.074;17.004;2023-04-25T11:31:56;24.00;38.30
39751;DHT22;37579;51.074;17.004;2023-04-25T11:34:27;24.00;38.10
39751;DHT22;37579;51.074;17.004;2023-04-25T11:36:56;24.10;38.50
39751;DHT22;37579;51.074;17.004;2023-04-25T11:39:23;24.10;37.60
39751;DHT22;37579;51.074;17.004;2023-04-25T11:41:50;24.10;37.40
39751;DHT22;37579;51.074;17.004;2023-04-25T11:44:17;24.10;37.30
39751;DHT22;37579;51.074;17.004;2023-04-25T11:46:50;24.10;38.00
39751;DHT22;37579;51.074;17.004;2023-04-25T11:49:16;24.10;37.80
39751;DHT22;37579;51.074;17.004;2023-04-25T11:51:47;24.10;38.10
39751;DHT22;37579;51.074;17.004;2023-04-25T11:54:14;24.10;39.10
39751;DHT22;37579;51.074;17.004;2023-04-25T11:56:44;24.20;39.90
39751;DHT22;37579;51.074;17.004;2023-04-25T11:59:11;24.20;40.10
39751;DHT22;37579;51.074;17.004;2023-04-25T12:01:39;24.20;40.50
39751;DHT22;37579;51.074;17.004;2023-04-25T12:04:24;24.20;40.70
39751;DHT22;37579;51.074;17.004;2023-04-25T12:06:52;24.20;40.80
39751;DHT22;37579;51.074;17.004;2023-04-25T12:09:29;24.30;41.10
39751;DHT22;37579;51.074;17.004;2023-04-25T12:11:56;24.30;41.40
39751;DHT22;37579;51.074;17.004;2023-04-25T12:14:31;24.30;41.50
39751;DHT22;37579;51.074;17.004;2023-04-25T12:16:59;24.30;41.60
39751;DHT22;37579;51.074;17.004;2023-04-25T12:19:26;24.30;41.70
39751;DHT22;37579;51.074;17.004;2023-04-25T12:21:52;24.40;41.90
39751;DHT22;37579;51.074;17.004;2023-04-25T12:24:23;24.40;41.60
39751;DHT22;37579;51.074;17.004;2023-04-25T12:26:59;24.40;41.40
39751;DHT22;37579;51.074;17.004;2023-04-25T12:29:26;24.40;42.10
39751;DHT22;37579;51.074;17.004;2023-04-25T12:31:54;24.40;42.60
39751;DHT22;37579;51.074;17.004;2023-04-25T12:34:21;24.40;42.60
39751;DHT22;37579;51.074;17.004;2023-04-25T12:36:48;24.40;42.60
39751;DHT22;37579;51.074;17.004;2023-04-25T12:39:15;24.40;42.40
39751;DHT22;37579;51.074;17.004;2023-04-25T12:41:41;24.40;42.50
39751;DHT22;37579;51.074;17.004;2023-04-25T12:44:07;24.40;42.60
39751;DHT22;37579;51.074;17.004;2023-04-25T12:46:33;24.40;42.70
39751;DHT22;37579;51.074;17.004;2023-04-25T12:48:59;24.40;42.90
39751;DHT22;37579;51.074;17.004;2023-04-25T12:51:25;24.40;43.00
39751;DHT22;37579;51.074;17.004;2023-04-25T12:53:53;24.40;43.10
39751;DHT22;37579;51.074;17.004;2023-04-25T12:56:19;24.40;43.20
39751;DHT22;37579;51.074;17.004;2023-04-25T12:58:45;24.40;43.10
39751;DHT22;37579;51.074;17.004;2023-04-25T13:01:12;24.50;43.10
39751;DHT22;37579;51.074;17.004;2023-04-25T13:03:39;24.50;42.90
39751;DHT22;37579;51.074;17.004;2023-04-25T13:06:06;24.50;42.90
39751;DHT22;37579;51.074;17.004;2023-04-25T13:08:32;24.60;42.90
39751;DHT22;37579;51.074;17.004;2023-04-25T13:10:58;24.60;43.20
39751;DHT22;37579;51.074;17.004;2023-04-25T13:13:24;24.60;43.30
39751;DHT22;37579;51.074;17.004;2023-04-25T13:15:50;24.60;43.20
39751;DHT22;37579;51.074;17.004;2023-04-25T13:18:15;24.60;43.20
39751;DHT22;37579;51.074;17.004;2023-04-25T13:20:41;24.60;43.40
39751;DHT22;37579;51.074;17.004;2023-04-25T13:23:07;24.60;43.40
39751;DHT22;37579;51.074;17.004;2023-04-25T13:25:33;24.60;43.50
39751;DHT22;37579;51.074;17.004;2023-04-25T13:27:59;24.60;43.50
39751;DHT22;37579;51.074;17.004;2023-04-25T13:30:25;24.60;43.60
39751;DHT22;37579;51.074;17.004;2023-04-25T13:32:51;24.50;43.80
39751;DHT22;37579;51.074;17.004;2023-04-25T13:35:18;24.60;44.00
39751;DHT22;37579;51.074;17.004;2023-04-25T13:37:43;24.60;44.00
39751;DHT22;37579;51.074;17.004;2023-04-25T13:40:10;24.60;44.00
39751;DHT22;37579;51.074;17.004;2023-04-25T13:42:37;24.60;44.10
39751;DHT22;37579;51.074;17.004;2023-04-25T13:45:03;24.60;44.30
39751;DHT22;37579;51.074;17.004;2023-04-25T13:47:29;24.60;44.40
39751;DHT22;37579;51.074;17.004;2023-04-25T13:49:56;24.60;44.30
39751;DHT22;37579;51.074;17.004;2023-04-25T13:52:22;24.60;44.30
39751;DHT22;37579;51.074;17.004;2023-04-25T13:54:50;24.60;44.30
39751;DHT22;37579;51.074;17.004;2023-04-25T13:57:17;24.60;44.40
39751;DHT22;37579;51.074;17.004;2023-04-25T13:59:43;24.60;44.40
39751;DHT22;37579;51.074;17.004;2023-04-25T14:02:09;24.60;44.40
39751;DHT22;37579;51.074;17.004;2023-04-25T14:04:34;24.60;44.50
39751;DHT22;37579;51.074;17.004;2023-04-25T14:07:02;24.60;44.40
39751;DHT22;37579;51.074;17.004;2023-04-25T14:09:28;24.50;44.50
39751;DHT22;37579;51.074;17.004;2023-04-25T14:11:54;24.50;44.50
39751;DHT22;37579;51.074;17.004;2023-04-25T14:14:21;24.50;44.50
39751;DHT22;37579;51.074;17.004;2023-04-25T14:16:48;24.50;44.50
39751;DHT22;37579;51.074;17.004;2023-04-25T14:19:14;24.50;44.60
39751;DHT22;37579;51.074;17.004;2023-04-25T14:21:40;24.50;44.60
39751;DHT22;37579;51.074;17.004;2023-04-25T14:24:06;24.50;44.60
39751;DHT22;37579;51.074;17.004;2023-04-25T14:26:35;24.50;44.60
39751;DHT22;37579;51.074;17.004;2023-04-25T14:29:06;24.50;44.70
39751;DHT22;37579;51.074;17.004;2023-04-25T14:31:38;24.50;44.70
39751;DHT22;37579;51.074;17.004;2023-04-25T14:34:04;24.50;44.80
39751;DHT22;37579;51.074;17.004;2023-04-25T14:36:31;24.50;44.80
39751;DHT22;37579;51.074;17.004;2023-04-25T14:38:58;24.50;44.90
39751;DHT22;37579;51.074;17.004;2023-04-25T14:41:24;24.50;44.90
39751;DHT22;37579;51.074;17.004;2023-04-25T14:43:50;24.60;44.90
39751;DHT22;37579;51.074;17.004;2023-04-25T14:46:16;24.60;45.00
39751;DHT22;37579;51.074;17.004;2023-04-25T14:48:42;24.60;44.90
39751;DHT22;37579;51.074;17.004;2023-04-25T14:51:08;24.60;45.00
39751;DHT22;37579;51.074;17.004;2023-04-25T14:53:34;24.60;45.70
39751;DHT22;37579;51.074;17.004;2023-04-25T14:56:00;24.50;45.10
39751;DHT22;37579;51.074;17.004;2023-04-25T14:58:25;24.50;45.20
39751;DHT22;37579;51.074;17.004;2023-04-25T15:00:51;24.50;45.20
39751;DHT22;37579;51.074;17.004;2023-04-25T15:03:17;24.50;45.20
39751;DHT22;37579;51.074;17.004;2023-04-25T15:05:46;24.60;45.30
39751;DHT22;37579;51.074;17.004;2023-04-25T15:08:12;24.60;45.40
39751;DHT22;37579;51.074;17.004;2023-04-25T15:10:38;24.50;45.40
39751;DHT22;37579;51.074;17.004;2023-04-25T15:13:04;24.50;45.40
39751;DHT22;37579;51.074;17.004;2023-04-25T15:15:30;24.50;45.40
39751;DHT22;37579;51.074;17.004;2023-04-25T15:17:56;24.60;45.50
39751;DHT22;37579;51.074;17.004;2023-04-25T15:20:22;24.60;45.50
39751;DHT22;37579;51.074;17.004;2023-04-25T15:22:48;24.50;45.60
39751;DHT22;37579;51.074;17.004;2023-04-25T15:25:15;24.50;45.60
39751;DHT22;37579;51.074;17.004;2023-04-25T15:27:43;24.50;45.60
39751;DHT22;37579;51.074;17.004;2023-04-25T15:30:12;24.50;45.50
39751;DHT22;37579;51.074;17.004;2023-04-25T15:32:39;24.60;45.50
39751;DHT22;37579;51.074;17.004;2023-04-25T15:35:05;24.60;45.40